createdAt,value
2017-05-31T00:00:34.972Z,18.65
2017-05-31T00:01:31.300Z,18.63
2017-05-31T00:02:27.617Z,18.60
2017-05-31T00:03:23.956Z,18.59
2017-05-31T00:04:20.280Z,18.57
2017-05-31T00:05:16.644Z,18.54
2017-05-31T00:06:12.963Z,18.51
2017-05-31T00:07:09.333Z,18.49
2017-05-31T00:08:05.704Z,18.47
2017-05-31T00:09:02.057Z,18.44
2017-05-31T00:09:58.481Z,18.42
2017-05-31T00:10:54.826Z,18.40
2017-05-31T00:11:51.193Z,18.39
2017-05-31T00:12:47.536Z,18.37
2017-05-31T00:13:43.882Z,18.34
2017-05-31T00:14:40.244Z,18.31
2017-05-31T00:15:36.602Z,18.28
2017-05-31T00:16:32.956Z,18.26
2017-05-31T00:17:29.316Z,18.23
2017-05-31T00:18:25.666Z,18.22
2017-05-31T00:19:22.001Z,18.21
2017-05-31T00:20:18.399Z,18.19
2017-05-31T00:21:14.733Z,18.16
2017-05-31T00:22:11.095Z,18.14
2017-05-31T00:23:07.456Z,18.13
2017-05-31T00:24:03.807Z,18.10
2017-05-31T00:25:00.179Z,18.08
2017-05-31T00:25:56.538Z,18.05
2017-05-31T00:26:52.901Z,18.03
2017-05-31T00:27:49.238Z,18.02
2017-05-31T00:28:45.585Z,17.99
2017-05-31T00:29:41.932Z,17.96
2017-05-31T00:30:38.300Z,17.94
2017-05-31T00:31:34.685Z,17.90
2017-05-31T00:32:31.065Z,17.89
2017-05-31T00:33:27.408Z,17.85
2017-05-31T00:34:23.769Z,17.84
2017-05-31T00:35:20.124Z,17.81
2017-05-31T00:36:16.474Z,17.79
2017-05-31T00:37:12.832Z,17.77
2017-05-31T00:38:09.209Z,17.73
2017-05-31T00:39:05.553Z,17.71
2017-05-31T00:40:01.884Z,17.68
2017-05-31T00:40:58.260Z,17.67
2017-05-31T00:41:54.592Z,17.63
2017-05-31T00:42:50.957Z,17.60
2017-05-31T00:43:47.320Z,17.59
2017-05-31T00:44:43.642Z,17.56
2017-05-31T00:45:39.992Z,17.53
2017-05-31T00:46:36.390Z,17.51
2017-05-31T00:47:32.750Z,17.49
2017-05-31T00:48:29.100Z,17.46
2017-05-31T00:49:25.449Z,17.43
2017-05-31T00:50:21.798Z,17.41
2017-05-31T00:51:18.154Z,17.39
2017-05-31T00:52:14.489Z,17.35
2017-05-31T00:53:10.842Z,17.34
2017-05-31T00:54:07.146Z,17.31
2017-05-31T00:55:03.489Z,17.28
2017-05-31T00:55:59.843Z,17.26
2017-05-31T00:56:56.189Z,17.24
2017-05-31T00:57:53.352Z,17.20
2017-05-31T00:58:49.744Z,17.18
2017-05-31T00:59:46.119Z,17.16
2017-05-31T01:00:42.574Z,17.14
2017-05-31T01:01:38.959Z,17.12
2017-05-31T01:02:35.308Z,17.10
2017-05-31T01:03:31.621Z,17.07
2017-05-31T01:04:28.004Z,17.06
2017-05-31T01:05:24.373Z,17.03
2017-05-31T01:06:20.724Z,17.01
2017-05-31T01:07:17.059Z,16.98
2017-05-31T01:08:13.359Z,16.96
2017-05-31T01:09:09.717Z,16.94
2017-05-31T01:10:06.118Z,16.93
2017-05-31T01:11:02.509Z,16.91
2017-05-31T01:11:58.841Z,16.90
2017-05-31T01:12:55.188Z,16.88
2017-05-31T01:13:51.504Z,16.88
2017-05-31T01:14:47.865Z,16.86
2017-05-31T01:15:44.216Z,16.84
2017-05-31T01:16:40.585Z,16.83
2017-05-31T01:17:36.899Z,16.83
2017-05-31T01:18:33.230Z,16.83
2017-05-31T01:19:29.573Z,16.81
2017-05-31T01:20:25.977Z,16.81
2017-05-31T01:21:22.357Z,16.80
2017-05-31T01:22:19.625Z,16.80
2017-05-31T01:23:15.974Z,16.80
2017-05-31T01:24:12.377Z,16.79
2017-05-31T01:25:09.628Z,16.78
2017-05-31T01:26:05.978Z,16.78
2017-05-31T01:27:02.357Z,16.77
2017-05-31T01:27:58.759Z,16.77
2017-05-31T01:28:55.097Z,16.77
2017-05-31T01:29:51.465Z,16.75
2017-05-31T01:30:48.056Z,16.76
2017-05-31T01:31:44.395Z,16.76
2017-05-31T01:32:40.756Z,16.76
2017-05-31T01:33:37.143Z,16.77
2017-05-31T01:34:33.506Z,16.77
2017-05-31T01:35:29.920Z,16.77
2017-05-31T01:36:26.258Z,16.78
2017-05-31T01:37:23.490Z,16.77
2017-05-31T01:38:19.816Z,16.79
2017-05-31T01:39:16.160Z,16.79
2017-05-31T01:40:12.481Z,16.79
2017-05-31T01:41:08.812Z,16.79
2017-05-31T01:42:05.140Z,16.78
2017-05-31T01:43:01.535Z,16.78
2017-05-31T01:43:57.869Z,16.80
2017-05-31T01:44:54.204Z,16.80
2017-05-31T01:45:50.552Z,16.79
2017-05-31T01:46:46.944Z,16.80
2017-05-31T01:47:43.327Z,16.79
2017-05-31T01:48:39.699Z,16.80
2017-05-31T01:49:36.024Z,16.80
2017-05-31T01:50:32.332Z,16.79
2017-05-31T01:51:28.692Z,16.80
2017-05-31T01:52:25.113Z,16.80
2017-05-31T01:53:21.545Z,16.80
2017-05-31T01:54:17.880Z,16.80
2017-05-31T01:55:14.204Z,16.80
2017-05-31T01:56:10.602Z,16.80
2017-05-31T01:57:07.010Z,16.79
2017-05-31T01:58:03.345Z,16.81
2017-05-31T01:58:59.689Z,16.80
2017-05-31T01:59:56.777Z,16.79
2017-05-31T02:00:53.125Z,16.79
2017-05-31T02:01:49.484Z,16.78
2017-05-31T02:02:45.883Z,16.77
2017-05-31T02:03:42.287Z,16.76
2017-05-31T02:04:39.553Z,16.76
2017-05-31T02:05:35.939Z,16.74
2017-05-31T02:06:32.277Z,16.71
2017-05-31T02:07:28.588Z,16.71
2017-05-31T02:08:24.956Z,16.67
2017-05-31T02:09:22.126Z,16.67
2017-05-31T02:10:18.493Z,16.65
2017-05-31T02:11:14.877Z,16.61
2017-05-31T02:12:12.234Z,16.59
2017-05-31T02:13:08.585Z,16.54
2017-05-31T02:14:04.988Z,16.49
2017-05-31T02:15:01.352Z,16.45
2017-05-31T02:15:57.764Z,16.41
2017-05-31T02:16:54.124Z,16.37
2017-05-31T02:17:50.536Z,16.32
2017-05-31T02:18:46.980Z,16.28
2017-05-31T02:19:43.335Z,16.24
2017-05-31T02:20:39.681Z,16.19
2017-05-31T02:21:36.055Z,16.15
2017-05-31T02:22:32.414Z,16.13
2017-05-31T02:23:29.660Z,16.08
2017-05-31T02:24:26.096Z,16.05
2017-05-31T02:25:22.505Z,16.01
2017-05-31T02:26:19.679Z,15.97
2017-05-31T02:27:16.864Z,15.94
2017-05-31T02:28:13.251Z,15.90
2017-05-31T02:29:09.673Z,15.88
2017-05-31T02:30:06.088Z,15.85
2017-05-31T02:31:02.460Z,15.83
2017-05-31T02:31:58.893Z,15.80
2017-05-31T02:32:55.315Z,15.78
2017-05-31T02:33:52.412Z,15.74
2017-05-31T02:34:48.809Z,15.72
2017-05-31T02:35:46.037Z,15.69
2017-05-31T02:36:42.414Z,15.66
2017-05-31T02:37:38.830Z,15.64
2017-05-31T02:38:35.262Z,15.61
2017-05-31T02:39:31.603Z,15.59
2017-05-31T02:40:28.034Z,15.56
2017-05-31T02:41:24.498Z,15.54
2017-05-31T02:42:20.854Z,15.51
2017-05-31T02:43:17.253Z,15.49
2017-05-31T02:44:13.631Z,15.46
2017-05-31T02:45:10.108Z,15.43
2017-05-31T02:46:06.570Z,15.41
2017-05-31T02:47:03.923Z,15.39
2017-05-31T02:48:00.356Z,15.36
2017-05-31T02:48:56.846Z,15.33
2017-05-31T02:49:53.281Z,15.31
2017-05-31T02:50:49.704Z,15.30
2017-05-31T02:51:46.136Z,15.28
2017-05-31T02:52:43.337Z,15.25
2017-05-31T02:53:40.533Z,15.23
2017-05-31T02:54:37.797Z,15.21
2017-05-31T02:55:34.208Z,15.18
2017-05-31T02:56:30.696Z,15.17
2017-05-31T02:57:28.049Z,15.17
2017-05-31T02:58:24.484Z,15.15
2017-05-31T02:59:20.914Z,15.11
2017-05-31T03:00:17.392Z,15.10
2017-05-31T03:01:13.806Z,15.08
2017-05-31T03:02:10.247Z,15.07
2017-05-31T03:03:06.721Z,15.05
2017-05-31T03:04:03.218Z,15.03
2017-05-31T03:04:59.688Z,15.01
2017-05-31T03:05:56.112Z,15.00
2017-05-31T03:06:52.609Z,14.98
2017-05-31T03:07:49.173Z,14.97
2017-05-31T03:08:45.697Z,14.95
2017-05-31T03:09:42.157Z,14.94
2017-05-31T03:10:38.617Z,14.93
2017-05-31T03:11:35.048Z,14.93
2017-05-31T03:12:31.540Z,14.90
2017-05-31T03:13:28.049Z,14.88
2017-05-31T03:14:24.559Z,14.87
2017-05-31T03:15:21.014Z,14.85
2017-05-31T03:16:17.440Z,14.86
2017-05-31T03:17:13.910Z,14.84
2017-05-31T03:18:10.440Z,14.83
2017-05-31T03:19:06.877Z,14.81
2017-05-31T03:20:03.345Z,14.80
2017-05-31T03:20:59.791Z,14.80
2017-05-31T03:21:56.264Z,14.79
2017-05-31T03:22:52.734Z,14.79
2017-05-31T03:23:49.199Z,14.79
2017-05-31T03:24:45.727Z,14.76
2017-05-31T03:25:42.225Z,14.76
2017-05-31T03:26:38.679Z,14.75
2017-05-31T03:27:35.191Z,14.76
2017-05-31T03:28:31.699Z,14.74
2017-05-31T03:29:28.439Z,14.75
2017-05-31T03:30:24.982Z,14.75
2017-05-31T03:31:21.501Z,14.74
2017-05-31T03:32:18.051Z,14.73
2017-05-31T03:33:14.536Z,14.73
2017-05-31T03:34:11.015Z,14.73
2017-05-31T03:35:07.445Z,14.71
2017-05-31T03:36:03.973Z,14.72
2017-05-31T03:37:00.461Z,14.72
2017-05-31T03:37:56.918Z,14.72
2017-05-31T03:38:53.371Z,14.74
2017-05-31T03:39:49.833Z,14.73
2017-05-31T03:40:46.259Z,14.73
2017-05-31T03:41:42.762Z,14.74
2017-05-31T03:42:39.263Z,14.74
2017-05-31T03:43:35.722Z,14.74
2017-05-31T03:44:32.245Z,14.76
2017-05-31T03:45:28.648Z,14.75
2017-05-31T03:46:25.106Z,14.75
2017-05-31T03:47:21.611Z,14.75
2017-05-31T03:48:18.127Z,14.75
2017-05-31T03:49:14.672Z,14.74
2017-05-31T03:50:11.089Z,14.76
2017-05-31T03:51:07.590Z,14.75
2017-05-31T03:52:04.089Z,14.74
2017-05-31T03:53:00.537Z,14.74
2017-05-31T03:53:57.037Z,14.74
2017-05-31T03:54:54.530Z,14.74
2017-05-31T03:55:51.106Z,14.73
2017-05-31T03:56:47.751Z,14.71
2017-05-31T03:57:45.306Z,14.73
2017-05-31T03:58:42.922Z,14.71
2017-05-31T03:59:40.579Z,14.71
2017-05-31T04:00:37.085Z,14.71
2017-05-31T04:01:33.721Z,14.71
2017-05-31T04:02:30.289Z,14.70
2017-05-31T04:03:27.001Z,14.70
2017-05-31T04:04:23.474Z,14.69
2017-05-31T04:05:20.128Z,14.69
2017-05-31T04:06:16.707Z,14.68
2017-05-31T04:07:13.178Z,14.67
2017-05-31T04:08:10.670Z,14.69
2017-05-31T04:09:08.037Z,14.66
2017-05-31T04:10:04.585Z,14.67
2017-05-31T04:11:01.177Z,14.67
2017-05-31T04:11:57.678Z,14.66
2017-05-31T04:12:54.151Z,14.67
2017-05-31T04:13:50.627Z,14.66
2017-05-31T04:14:47.209Z,14.65
2017-05-31T04:15:43.752Z,14.64
2017-05-31T04:16:40.791Z,14.64
2017-05-31T04:17:37.312Z,14.64
2017-05-31T04:18:34.000Z,14.64
2017-05-31T04:19:30.936Z,14.64
2017-05-31T04:20:27.571Z,14.63
2017-05-31T04:21:24.176Z,14.63
2017-05-31T04:22:20.863Z,14.64
2017-05-31T04:23:17.416Z,14.64
2017-05-31T04:24:13.982Z,14.64
2017-05-31T04:25:10.573Z,14.63
2017-05-31T04:26:07.458Z,14.64
2017-05-31T04:27:04.100Z,14.63
2017-05-31T04:28:00.862Z,14.64
2017-05-31T04:28:57.694Z,14.64
2017-05-31T04:29:54.452Z,14.63
2017-05-31T04:30:51.152Z,14.63
2017-05-31T04:31:48.154Z,14.63
2017-05-31T04:32:46.113Z,14.62
2017-05-31T04:33:43.730Z,14.62
2017-05-31T04:34:40.616Z,14.61
2017-05-31T04:35:37.156Z,14.62
2017-05-31T04:36:33.783Z,14.62
2017-05-31T04:37:30.355Z,14.60
2017-05-31T04:38:27.693Z,14.61
2017-05-31T04:39:25.210Z,14.60
2017-05-31T04:40:21.950Z,14.60
2017-05-31T04:41:18.582Z,14.60
2017-05-31T04:42:15.136Z,14.60
2017-05-31T04:43:11.686Z,14.60
2017-05-31T04:44:08.242Z,14.59
2017-05-31T04:45:04.925Z,14.60
2017-05-31T04:46:01.421Z,14.60
2017-05-31T04:46:58.936Z,14.59
2017-05-31T04:47:55.535Z,14.60
2017-05-31T04:48:52.084Z,14.60
2017-05-31T04:49:48.630Z,14.60
2017-05-31T04:50:47.125Z,14.62
2017-05-31T04:51:45.408Z,14.62
2017-05-31T04:52:41.928Z,14.61
2017-05-31T04:53:38.330Z,14.62
2017-05-31T04:54:34.615Z,14.62
2017-05-31T04:55:31.868Z,14.64
2017-05-31T04:56:28.256Z,14.64
2017-05-31T04:57:24.551Z,14.64
2017-05-31T04:58:22.746Z,14.66
2017-05-31T04:59:19.083Z,14.66
2017-05-31T05:00:16.336Z,14.67
2017-05-31T05:01:12.815Z,14.68
2017-05-31T05:02:09.195Z,14.68
2017-05-31T05:03:05.455Z,14.70
2017-05-31T05:04:01.731Z,14.73
2017-05-31T05:04:58.021Z,14.73
2017-05-31T05:05:54.321Z,14.76
2017-05-31T05:06:50.640Z,14.76
2017-05-31T05:07:46.951Z,14.78
2017-05-31T05:08:43.363Z,14.77
2017-05-31T05:09:39.699Z,14.79
2017-05-31T05:10:36.231Z,14.79
2017-05-31T05:11:32.535Z,14.80
2017-05-31T05:12:28.863Z,14.82
2017-05-31T05:13:27.167Z,14.84
2017-05-31T05:14:23.540Z,14.84
2017-05-31T05:15:19.835Z,14.87
2017-05-31T05:16:18.164Z,14.87
2017-05-31T05:17:14.525Z,14.91
2017-05-31T05:18:10.815Z,14.90
2017-05-31T05:19:07.092Z,14.92
2017-05-31T05:20:03.759Z,14.93
2017-05-31T05:21:00.047Z,14.95
2017-05-31T05:21:57.275Z,14.96
2017-05-31T05:22:55.683Z,14.98
2017-05-31T05:23:52.027Z,15.00
2017-05-31T05:24:49.256Z,15.01
2017-05-31T05:25:45.672Z,15.02
2017-05-31T05:26:42.037Z,15.05
2017-05-31T05:27:38.429Z,15.06
2017-05-31T05:28:34.936Z,15.06
2017-05-31T05:29:31.423Z,15.08
2017-05-31T05:30:28.805Z,15.09
2017-05-31T05:31:27.130Z,15.11
2017-05-31T05:32:24.375Z,15.14
2017-05-31T05:33:20.655Z,15.16
2017-05-31T05:34:16.948Z,15.17
2017-05-31T05:35:15.000Z,15.17
2017-05-31T05:36:11.371Z,15.18
2017-05-31T05:37:07.690Z,15.21
2017-05-31T05:38:04.155Z,15.21
2017-05-31T05:39:00.415Z,15.25
2017-05-31T05:39:56.687Z,15.26
2017-05-31T05:40:53.817Z,15.27
2017-05-31T05:41:50.344Z,15.29
2017-05-31T05:42:48.319Z,15.30
2017-05-31T05:43:47.040Z,15.31
2017-05-31T05:44:43.358Z,15.33
2017-05-31T05:45:41.500Z,15.35
2017-05-31T05:46:37.783Z,15.36
2017-05-31T05:47:34.103Z,15.37
2017-05-31T05:48:31.495Z,15.39
2017-05-31T05:49:27.795Z,15.42
2017-05-31T05:50:31.776Z,15.44
2017-05-31T05:51:28.083Z,15.47
2017-05-31T05:52:24.355Z,15.48
2017-05-31T05:53:21.463Z,15.51
2017-05-31T05:54:18.678Z,15.53
2017-05-31T05:55:14.967Z,15.55
2017-05-31T05:56:11.255Z,15.56
2017-05-31T05:57:07.511Z,15.58
2017-05-31T05:58:05.667Z,15.60
2017-05-31T05:59:03.791Z,15.62
2017-05-31T06:00:00.851Z,15.63
2017-05-31T06:00:57.983Z,15.65
2017-05-31T06:01:54.287Z,15.68
2017-05-31T06:02:51.475Z,15.69
2017-05-31T06:03:47.758Z,15.71
2017-05-31T06:04:44.007Z,15.73
2017-05-31T06:05:40.255Z,15.75
2017-05-31T06:06:37.107Z,15.77
2017-05-31T06:07:33.355Z,15.80
2017-05-31T06:08:30.651Z,15.81
2017-05-31T06:09:27.871Z,15.83
2017-05-31T06:10:24.127Z,15.85
2017-05-31T06:11:20.402Z,15.88
2017-05-31T06:12:16.659Z,15.90
2017-05-31T06:13:12.911Z,15.92
2017-05-31T06:14:11.068Z,15.93
2017-05-31T06:15:07.327Z,15.96
2017-05-31T06:16:03.620Z,15.97
2017-05-31T06:17:00.011Z,16.00
2017-05-31T06:17:56.332Z,16.03
2017-05-31T06:18:54.450Z,16.05
2017-05-31T06:19:50.727Z,16.08
2017-05-31T06:20:47.000Z,16.10
2017-05-31T06:21:43.250Z,16.12
2017-05-31T06:22:39.559Z,16.14
2017-05-31T06:23:36.683Z,16.15
2017-05-31T06:24:33.995Z,16.16
2017-05-31T06:25:30.247Z,16.19
2017-05-31T06:26:26.515Z,16.20
2017-05-31T06:27:23.949Z,16.24
2017-05-31T06:28:20.295Z,16.24
2017-05-31T06:29:17.487Z,16.25
2017-05-31T06:30:13.875Z,16.26
2017-05-31T06:31:10.340Z,16.28
2017-05-31T06:32:06.604Z,16.29
2017-05-31T06:33:02.854Z,16.32
2017-05-31T06:33:59.119Z,16.32
2017-05-31T06:34:56.386Z,16.35
2017-05-31T06:35:52.651Z,16.36
2017-05-31T06:36:48.933Z,16.38
2017-05-31T06:37:45.172Z,16.40
2017-05-31T06:38:41.436Z,16.41
2017-05-31T06:39:38.471Z,16.43
2017-05-31T06:40:35.635Z,16.45
2017-05-31T06:41:31.927Z,16.45
2017-05-31T06:42:29.083Z,16.47
2017-05-31T06:43:25.346Z,16.49
2017-05-31T06:44:21.631Z,16.50
2017-05-31T06:45:17.883Z,16.51
2017-05-31T06:46:14.143Z,16.54
2017-05-31T06:47:10.405Z,16.56
2017-05-31T06:48:06.675Z,16.57
2017-05-31T06:49:02.931Z,16.59
2017-05-31T06:49:59.187Z,16.61
2017-05-31T06:50:55.467Z,16.63
2017-05-31T06:51:51.720Z,16.63
2017-05-31T06:52:47.991Z,16.65
2017-05-31T06:53:45.123Z,16.65
2017-05-31T06:54:41.473Z,16.67
2017-05-31T06:55:38.559Z,16.70
2017-05-31T06:56:35.680Z,16.71
2017-05-31T06:57:32.054Z,16.71
2017-05-31T06:58:28.427Z,16.73
2017-05-31T06:59:24.771Z,16.75
2017-05-31T07:00:21.092Z,16.77
2017-05-31T07:01:17.421Z,16.79
2017-05-31T07:02:13.760Z,16.80
2017-05-31T07:03:10.028Z,16.82
2017-05-31T07:04:06.311Z,16.83
2017-05-31T07:05:02.571Z,16.85
2017-05-31T07:05:59.867Z,16.86
2017-05-31T07:06:56.157Z,16.87
2017-05-31T07:07:52.443Z,16.89
2017-05-31T07:08:48.700Z,16.90
2017-05-31T07:09:45.091Z,16.92
2017-05-31T07:10:41.391Z,16.94
2017-05-31T07:11:38.556Z,16.97
2017-05-31T07:12:34.839Z,17.00
2017-05-31T07:13:31.139Z,17.03
2017-05-31T07:14:27.455Z,17.06
2017-05-31T07:15:23.724Z,17.10
2017-05-31T07:16:20.900Z,17.14
2017-05-31T07:17:17.190Z,17.16
2017-05-31T07:18:13.660Z,17.19
2017-05-31T07:19:10.056Z,17.22
2017-05-31T07:20:06.335Z,17.24
2017-05-31T07:21:02.603Z,17.27
2017-05-31T07:21:59.687Z,17.30
2017-05-31T07:22:55.982Z,17.32
2017-05-31T07:23:52.251Z,17.36
2017-05-31T07:24:48.518Z,17.37
2017-05-31T07:25:45.563Z,17.41
2017-05-31T07:26:41.824Z,17.43
2017-05-31T07:27:38.104Z,17.45
2017-05-31T07:28:34.443Z,17.48
2017-05-31T07:29:31.678Z,17.50
2017-05-31T07:30:28.715Z,17.53
2017-05-31T07:31:25.003Z,17.53
2017-05-31T07:32:21.336Z,17.57
2017-05-31T07:33:17.660Z,17.59
2017-05-31T07:34:13.927Z,17.61
2017-05-31T07:35:10.224Z,17.63
2017-05-31T07:36:07.459Z,17.68
2017-05-31T07:37:04.565Z,17.69
2017-05-31T07:38:00.818Z,17.73
2017-05-31T07:38:58.934Z,17.75
2017-05-31T07:39:55.222Z,17.79
2017-05-31T07:40:51.604Z,17.82
2017-05-31T07:41:47.859Z,17.85
2017-05-31T07:42:44.119Z,17.89
2017-05-31T07:43:41.266Z,17.93
2017-05-31T07:44:37.560Z,17.96
2017-05-31T07:45:34.767Z,18.00
2017-05-31T07:46:31.903Z,18.04
2017-05-31T07:47:28.232Z,18.06
2017-05-31T07:48:24.535Z,18.10
2017-05-31T07:49:20.829Z,18.13
2017-05-31T07:50:17.127Z,18.18
2017-05-31T07:51:13.402Z,18.21
2017-05-31T07:52:09.687Z,18.25
2017-05-31T07:53:06.179Z,18.27
2017-05-31T07:54:02.487Z,18.31
2017-05-31T07:54:59.627Z,18.36
2017-05-31T07:55:56.935Z,18.38
2017-05-31T07:56:53.239Z,18.43
2017-05-31T07:57:49.563Z,18.46
2017-05-31T07:58:45.855Z,18.49
2017-05-31T07:59:42.123Z,18.54
2017-05-31T08:00:38.416Z,18.56
2017-05-31T08:01:34.805Z,18.59
2017-05-31T08:02:31.078Z,18.61
2017-05-31T08:03:27.338Z,18.65
2017-05-31T08:04:23.631Z,18.68
2017-05-31T08:05:19.939Z,18.70
2017-05-31T08:06:16.271Z,18.73
2017-05-31T08:07:12.595Z,18.74
2017-05-31T08:08:08.903Z,18.76
2017-05-31T08:09:05.199Z,18.77
2017-05-31T08:10:01.506Z,18.79
2017-05-31T08:10:57.798Z,18.83
2017-05-31T08:11:54.115Z,18.84
2017-05-31T08:12:50.371Z,18.88
2017-05-31T08:13:46.639Z,18.91
2017-05-31T08:14:42.920Z,18.93
2017-05-31T08:15:39.210Z,18.98
2017-05-31T08:16:35.500Z,19.00
2017-05-31T08:17:31.799Z,19.03
2017-05-31T08:18:28.127Z,19.05
2017-05-31T08:19:24.375Z,19.08
2017-05-31T08:20:20.654Z,19.12
2017-05-31T08:21:16.918Z,19.15
2017-05-31T08:22:13.170Z,19.18
2017-05-31T08:23:09.467Z,19.21
2017-05-31T08:24:05.754Z,19.22
2017-05-31T08:25:02.166Z,19.25
2017-05-31T08:25:58.443Z,19.28
2017-05-31T08:26:54.739Z,19.31
2017-05-31T08:27:51.034Z,19.34
2017-05-31T08:28:47.307Z,19.36
2017-05-31T08:29:43.567Z,19.39
2017-05-31T08:30:39.818Z,19.41
2017-05-31T08:31:36.095Z,19.43
2017-05-31T08:32:32.359Z,19.45
2017-05-31T08:33:28.659Z,19.47
2017-05-31T08:34:24.919Z,19.48
2017-05-31T08:35:21.280Z,19.49
2017-05-31T08:36:17.559Z,19.50
2017-05-31T08:37:13.858Z,19.51
2017-05-31T08:38:10.120Z,19.51
2017-05-31T08:39:06.439Z,19.52
2017-05-31T08:40:02.695Z,19.53
2017-05-31T08:40:58.972Z,19.53
2017-05-31T08:41:55.307Z,19.53
2017-05-31T08:42:51.555Z,19.55
2017-05-31T08:43:47.834Z,19.55
2017-05-31T08:44:44.120Z,19.57
2017-05-31T08:45:40.383Z,19.58
2017-05-31T08:46:36.640Z,19.60
2017-05-31T08:47:32.931Z,19.61
2017-05-31T08:48:29.211Z,19.62
2017-05-31T08:49:25.491Z,19.65
2017-05-31T08:50:21.779Z,19.67
2017-05-31T08:51:18.061Z,19.69
2017-05-31T08:52:14.319Z,19.71
2017-05-31T08:53:10.628Z,19.75
2017-05-31T08:54:06.891Z,19.79
2017-05-31T08:55:03.184Z,19.84
2017-05-31T08:55:59.447Z,19.89
2017-05-31T08:56:56.639Z,19.96
2017-05-31T08:57:52.910Z,20.02
2017-05-31T08:58:49.175Z,20.09
2017-05-31T08:59:45.439Z,20.15
2017-05-31T09:00:41.695Z,20.22
2017-05-31T09:01:37.963Z,20.33
2017-05-31T09:02:34.227Z,20.42
2017-05-31T09:03:30.493Z,20.50
2017-05-31T09:04:26.771Z,20.59
2017-05-31T09:05:23.031Z,20.67
2017-05-31T09:06:19.311Z,20.74
2017-05-31T09:07:15.567Z,20.79
2017-05-31T09:08:11.823Z,20.82
2017-05-31T09:09:08.107Z,20.85
2017-05-31T09:10:04.383Z,20.88
2017-05-31T09:11:00.671Z,20.89
2017-05-31T09:11:56.940Z,20.91
2017-05-31T09:12:53.191Z,20.92
2017-05-31T09:13:49.459Z,20.94
2017-05-31T09:14:46.616Z,20.95
2017-05-31T09:15:42.879Z,20.99
2017-05-31T09:16:39.119Z,21.01
2017-05-31T09:17:35.395Z,21.05
2017-05-31T09:18:31.674Z,21.07
2017-05-31T09:19:27.948Z,21.12
2017-05-31T09:20:24.194Z,21.18
2017-05-31T09:21:20.461Z,21.26
2017-05-31T09:22:16.727Z,21.33
2017-05-31T09:23:12.972Z,21.40
2017-05-31T09:24:09.228Z,21.44
2017-05-31T09:25:05.503Z,21.49
2017-05-31T09:26:01.763Z,21.52
2017-05-31T09:26:58.019Z,21.56
2017-05-31T09:27:54.291Z,21.57
2017-05-31T09:28:50.587Z,21.59
2017-05-31T09:29:46.844Z,21.60
2017-05-31T09:30:43.103Z,21.62
2017-05-31T09:31:39.363Z,21.68
2017-05-31T09:32:35.610Z,21.74
2017-05-31T09:33:31.875Z,21.82
2017-05-31T09:34:28.124Z,21.91
2017-05-31T09:35:24.372Z,22.02
2017-05-31T09:36:20.624Z,22.13
2017-05-31T09:37:16.889Z,22.23
2017-05-31T09:38:13.162Z,22.31
2017-05-31T09:39:09.432Z,22.39
2017-05-31T09:40:05.691Z,22.47
2017-05-31T09:41:01.943Z,22.55
2017-05-31T09:41:58.199Z,22.64
2017-05-31T09:42:54.475Z,22.74
2017-05-31T09:43:50.719Z,22.85
2017-05-31T09:44:46.979Z,22.97
2017-05-31T09:45:43.246Z,23.07
2017-05-31T09:46:39.520Z,23.19
2017-05-31T09:47:35.803Z,23.29
2017-05-31T09:48:32.115Z,23.40
2017-05-31T09:49:28.379Z,23.50
2017-05-31T09:50:24.626Z,23.60
2017-05-31T09:51:20.879Z,23.70
2017-05-31T09:52:17.171Z,23.79
2017-05-31T09:53:13.423Z,23.88
2017-05-31T09:54:09.691Z,23.95
2017-05-31T09:55:05.951Z,24.02
2017-05-31T09:56:02.227Z,24.08
2017-05-31T09:56:58.474Z,24.13
2017-05-31T09:57:54.732Z,24.18
2017-05-31T09:58:50.999Z,24.24
2017-05-31T09:59:47.319Z,24.28
2017-05-31T10:00:43.579Z,24.33
2017-05-31T10:01:39.819Z,24.39
2017-05-31T10:02:36.076Z,24.48
2017-05-31T10:03:32.357Z,24.54
2017-05-31T10:04:28.691Z,24.60
2017-05-31T10:05:24.966Z,24.65
2017-05-31T10:06:21.219Z,24.69
2017-05-31T10:07:17.479Z,24.70
2017-05-31T10:08:13.729Z,24.69
2017-05-31T10:09:09.982Z,24.66
2017-05-31T10:10:06.331Z,24.64
2017-05-31T10:11:02.599Z,24.61
2017-05-31T10:11:58.855Z,24.56
2017-05-31T10:12:55.123Z,24.52
2017-05-31T10:13:51.391Z,24.48
2017-05-31T10:14:47.712Z,24.45
2017-05-31T10:15:43.972Z,24.41
2017-05-31T10:16:40.251Z,24.38
2017-05-31T10:17:36.511Z,24.32
2017-05-31T10:18:32.759Z,24.27
2017-05-31T10:19:29.014Z,24.21
2017-05-31T10:20:25.375Z,24.14
2017-05-31T10:21:21.618Z,24.08
2017-05-31T10:22:17.879Z,24.01
2017-05-31T10:23:14.136Z,23.95
2017-05-31T10:24:10.391Z,23.90
2017-05-31T10:25:06.667Z,23.85
2017-05-31T10:26:02.935Z,23.78
2017-05-31T10:26:59.195Z,23.72
2017-05-31T10:27:55.471Z,23.67
2017-05-31T10:28:51.728Z,23.62
2017-05-31T10:29:47.980Z,23.55
2017-05-31T10:30:44.268Z,23.50
2017-05-31T10:31:40.542Z,23.46
2017-05-31T10:32:36.803Z,23.46
2017-05-31T10:33:33.055Z,23.48
2017-05-31T10:34:29.347Z,23.51
2017-05-31T10:35:25.663Z,23.58
2017-05-31T10:36:21.948Z,23.72
2017-05-31T10:37:18.240Z,23.88
2017-05-31T10:38:14.507Z,24.02
2017-05-31T10:39:10.763Z,24.19
2017-05-31T10:40:07.059Z,24.35
2017-05-31T10:41:03.343Z,24.49
2017-05-31T10:41:59.618Z,24.62
2017-05-31T10:42:55.879Z,24.73
2017-05-31T10:43:52.138Z,24.86
2017-05-31T10:44:48.391Z,24.99
2017-05-31T10:45:44.679Z,25.12
2017-05-31T10:46:40.943Z,25.24
2017-05-31T10:47:37.207Z,25.34
2017-05-31T10:48:33.511Z,25.43
2017-05-31T10:49:29.772Z,25.50
2017-05-31T10:50:26.039Z,25.58
2017-05-31T10:51:22.291Z,25.63
2017-05-31T10:52:18.587Z,25.68
2017-05-31T10:53:14.850Z,25.73
2017-05-31T10:54:11.102Z,25.77
2017-05-31T10:55:07.360Z,25.79
2017-05-31T10:56:03.668Z,25.80
2017-05-31T10:57:00.019Z,25.80
2017-05-31T10:57:56.299Z,25.80
2017-05-31T10:58:52.558Z,25.79
2017-05-31T10:59:48.812Z,25.77
2017-05-31T11:00:45.067Z,25.73
2017-05-31T11:01:41.331Z,25.68
2017-05-31T11:02:37.619Z,25.65
2017-05-31T11:03:33.891Z,25.61
2017-05-31T11:04:30.163Z,25.64
2017-05-31T11:05:26.499Z,25.64
2017-05-31T11:06:22.752Z,25.66
2017-05-31T11:07:19.023Z,25.68
2017-05-31T11:08:15.291Z,25.71
2017-05-31T11:09:11.546Z,25.74
2017-05-31T11:10:07.811Z,25.81
2017-05-31T11:11:04.062Z,25.87
2017-05-31T11:12:00.323Z,25.93
2017-05-31T11:12:56.575Z,26.01
2017-05-31T11:13:52.831Z,26.11
2017-05-31T11:14:49.085Z,26.19
2017-05-31T11:15:45.343Z,26.26
2017-05-31T11:16:41.605Z,26.30
2017-05-31T11:17:38.016Z,26.34
2017-05-31T11:18:34.710Z,26.37
2017-05-31T11:19:30.987Z,26.40
2017-05-31T11:20:27.390Z,26.46
2017-05-31T11:21:23.959Z,26.49
2017-05-31T11:22:20.419Z,26.52
2017-05-31T11:23:16.837Z,26.57
2017-05-31T11:24:13.207Z,26.60
2017-05-31T11:25:09.459Z,26.64
2017-05-31T11:26:05.726Z,26.68
2017-05-31T11:27:01.995Z,26.76
2017-05-31T11:27:58.263Z,26.80
2017-05-31T11:28:54.746Z,26.84
2017-05-31T11:29:51.237Z,26.84
2017-05-31T11:30:47.727Z,26.86
2017-05-31T11:31:44.140Z,26.89
2017-05-31T11:32:40.615Z,26.92
2017-05-31T11:33:37.015Z,26.93
2017-05-31T11:34:33.292Z,26.98
2017-05-31T11:35:29.544Z,27.01
2017-05-31T11:36:26.084Z,27.05
2017-05-31T11:37:22.547Z,27.11
2017-05-31T11:38:18.827Z,27.15
2017-05-31T11:39:15.084Z,27.14
2017-05-31T11:40:11.375Z,27.13
2017-05-31T11:41:07.688Z,27.09
2017-05-31T11:42:04.118Z,27.03
2017-05-31T11:43:00.623Z,26.97
2017-05-31T11:43:56.862Z,26.89
2017-05-31T11:44:53.107Z,26.84
2017-05-31T11:45:49.500Z,26.78
2017-05-31T11:46:45.851Z,26.78
2017-05-31T11:47:42.324Z,26.78
2017-05-31T11:48:38.812Z,26.80
2017-05-31T11:49:35.232Z,26.78
2017-05-31T11:50:31.659Z,26.78
2017-05-31T11:51:28.058Z,26.78
2017-05-31T11:52:24.355Z,26.79
2017-05-31T11:53:20.603Z,26.81
2017-05-31T11:54:16.860Z,26.84
2017-05-31T11:55:13.428Z,26.88
2017-05-31T11:56:09.879Z,26.89
2017-05-31T11:57:06.211Z,26.90
2017-05-31T11:58:02.458Z,26.94
2017-05-31T11:58:58.707Z,26.96
2017-05-31T11:59:54.955Z,26.99
2017-05-31T12:00:51.223Z,27.03
2017-05-31T12:01:47.481Z,27.06
2017-05-31T12:02:43.762Z,27.08
2017-05-31T12:03:40.003Z,27.10
2017-05-31T12:04:36.274Z,27.12
2017-05-31T12:05:32.518Z,27.14
2017-05-31T12:06:28.796Z,27.16
2017-05-31T12:07:25.067Z,27.17